Caracol, Brazil
Current Conditions -  °F | °C
As of 4:20 PM on Sunday 21 Dec 2014 (Local Time) from SBPP Reporting Station
Thunderstorm Thunderstorm  
Wind Chill: 72°   Ceiling: 1500
Heat Index: 72°   Visibility: 3mi
Dew Point: 70°   Wind: 12mph
Humidity: 94%   Direction: 300°WNW
Pressure: 29.71"   Gusts: NA
Location:  22.01°S, 57.02°W
Report Text: SBPP 211920Z 30010KT 5000 TS BR BKN015 FEW030CB 22/21 Q1006
Loading
Personal Weather Stations






























Interactive Weather Map New forecast layout! Learn more

10-Day Weather Forecast

Advertisements
Track Severe Weather on mobile